Terminal Aerodrome Forecast
Issued by NWS

Home | Current Version | Previous Version | Text Only | Print | Product List | Glossary On
Versions: 1 2 3 4 5 6 7 8 9 10 11 12 13 14 15 16 17 18 19 20 21 22 23 24 25 26 27 28 29 30 31 32 33 34 35 36 37
000
FTUS43 KDTX 262325
TAFYIP
TAF
KYIP 262325Z 2700/2724 19010KT P6SM FEW030 SCT200
     FM270100 18008KT P6SM BKN040 BKN200
     FM271000 18008KT 4SM -DZ BR OVC015
     FM271400 22013KT 6SM -SHRA OVC025=

USA.gov is the U.S. government's official web portal to all federal, state and local government web resources and services.